Clio, West Virginia
Current Conditions -  °F | °C
As of 11:54 PM on Tuesday 21 Oct 2014 (Local Time) from KCRW Reporting Station
Overcast Overcast  
Wind Chill: 43°   Ceiling: 4600
Heat Index: 47°   Visibility: 10mi
Dew Point: 43°   Wind: 9mph
Humidity: 86%   Direction: 330°NNW
Pressure: 30.1"   Gusts: NA
Location:  38.58°N, 81.3°W
Report Text: KCRW 220354Z 33008KT 10SM SCT019 OVC046 08/06 A3010 RMK AO2 SLP191 T00830061
Loading
Personal Weather Stations






























Interactive Weather Map
Tropical Storm Tracking
New forecast layout! Learn more

10-Day Weather Forecast

Advertisements
Track Severe Weather on mobile